Time;durP1;ratioP1;P1;durP2;ratioP2;P2;SDS_P1;SDS_P2;PMS_P1;PMS_P2;Temp;Humidity;BMP_temperature;BMP_pressure;BME280_temperature;BME280_humidity;BME280_pressure;Samples;Min_cycle;Max_cycle;Signal;HPM_P1;HPM_P2
2023/02/24 00:02:00;;;;;;;43.88;31.40;;;11.60;99.90;;;;;;5064636;28;1131638;-62
2023/02/24 00:04:31;;;;;;;42.03;33.53;;;11.50;99.90;;;;;;5092955;27;20290;-62
2023/02/24 00:06:58;;;;;;;47.83;35.22;;;11.40;99.90;;;;;;5124396;27;20035;-60
2023/02/24 00:09:26;;;;;;;42.22;32.13;;;11.50;99.90;;;;;;5124335;27;20070;-61
2023/02/24 00:11:55;;;;;;;51.00;36.17;;;11.30;99.90;;;;;;5119111;27;20026;-62
2023/02/24 00:14:23;;;;;;;51.65;35.72;;;11.20;99.90;;;;;;5126471;27;20038;-61
2023/02/24 00:16:50;;;;;;;50.45;35.25;;;11.30;99.90;;;;;;5116770;27;20486;-63
2023/02/24 00:19:18;;;;;;;48.92;34.67;;;11.30;99.90;;;;;;5121385;27;20491;-60
2023/02/24 00:21:45;;;;;;;47.85;35.97;;;11.20;99.90;;;;;;5119474;27;20107;-63
2023/02/24 00:24:11;;;;;;;51.65;34.75;;;11.20;99.90;;;;;;5124098;27;20054;-63
2023/02/24 00:26:38;;;;;;;47.03;37.17;;;11.10;99.90;;;;;;5121933;27;20072;-61
2023/02/24 00:29:06;;;;;;;45.40;34.55;;;11.00;99.90;;;;;;5119830;27;20518;-62
2023/02/24 00:31:32;;;;;;;48.80;37.78;;;10.80;99.90;;;;;;5121125;27;20506;-61
2023/02/24 00:34:00;;;;;;;52.35;37.47;;;10.70;99.90;;;;;;5123334;27;20035;-62
2023/02/24 00:36:29;;;;;;;50.22;37.75;;;10.50;99.90;;;;;;5123771;27;20032;-61
2023/02/24 00:39:00;;;;;;;48.35;38.15;;;10.80;99.90;;;;;;5121280;27;20040;-60
2023/02/24 00:41:31;;;;;;;51.95;38.55;;;10.90;99.90;;;;;;5083096;27;20050;-59
2023/02/24 00:44:04;;;;;;;52.20;36.10;;;10.90;99.90;;;;;;5052845;27;20399;-62
2023/02/24 00:46:34;;;;;;;49.65;36.83;;;10.60;99.90;;;;;;5121477;27;20031;-59
2023/02/24 00:49:04;;;;;;;45.28;34.72;;;10.40;99.90;;;;;;5123242;27;20057;-62
2023/02/24 00:51:32;;;;;;;45.10;33.63;;;;;;;;;;5100943;28;20485;-59
2023/02/24 00:53:58;;;;;;;49.95;36.80;;;10.10;99.90;;;;;;5099181;28;20051;-62
2023/02/24 00:56:26;;;;;;;49.28;35.08;;;10.10;99.90;;;;;;5099471;28;20403;-60
2023/02/24 00:58:53;;;;;;;51.10;35.92;;;9.90;99.90;;;;;;5093392;28;20535;-58
2023/02/24 01:01:22;;;;;;;45.80;34.38;;;10.00;99.90;;;;;;5102787;28;20059;-61
2023/02/24 01:03:48;;;;;;;48.40;35.88;;;10.00;99.90;;;;;;5098961;28;20036;-58
2023/02/24 01:06:19;;;;;;;51.55;35.58;;;9.70;99.90;;;;;;5100925;28;20032;-61
2023/02/24 01:08:46;;;;;;;46.95;37.17;;;9.80;99.90;;;;;;5100552;28;20097;-59
2023/02/24 01:14:07;;;;;;;51.47;36.33;;;9.90;99.90;;;;;;5069252;28;20047;-59
2023/02/24 01:16:34;;;;;;;46.30;36.65;;;9.90;99.90;;;;;;5061505;28;20031;-62
2023/02/24 01:19:00;;;;;;;52.17;40.03;;;9.90;99.90;;;;;;5058573;28;20493;-61
2023/02/24 01:21:26;;;;;;;48.13;35.17;;;10.00;99.90;;;;;;5058856;28;20037;-60
2023/02/24 01:23:52;;;;;;;45.67;35.28;;;10.20;99.90;;;;;;5033555;28;20121;-62
2023/02/24 01:26:18;;;;;;;43.08;33.22;;;10.50;99.90;;;;;;5083343;28;20032;-61
2023/02/24 01:28:47;;;;;;;40.80;31.63;;;10.40;99.90;;;;;;5094690;28;20028;-61
2023/02/24 01:31:19;;;;;;;41.30;32.72;;;10.50;99.90;;;;;;5100740;28;20544;-58
2023/02/24 01:33:46;;;;;;;33.45;26.25;;;10.60;99.90;;;;;;5100533;28;20051;-60
2023/02/24 01:36:15;;;;;;;31.60;22.88;;;10.60;99.90;;;;;;5066335;28;20028;-60
2023/02/24 01:38:41;;;;;;;34.40;24.58;;;10.30;99.90;;;;;;5100088;28;20074;-59
2023/02/24 01:41:09;;;;;;;31.65;23.15;;;10.10;99.90;;;;;;5083272;28;20467;-60
2023/02/24 01:44:00;;;;;;;29.17;21.65;;;10.10;99.90;;;;;;5099902;28;20024;-59
2023/02/24 01:46:31;;;;;;;28.02;20.52;;;9.80;99.90;;;;;;5120826;28;20062;-59
2023/02/24 01:49:10;;;;;;;33.55;22.95;;;9.70;99.90;;;;;;5115790;28;20072;-60
2023/02/24 01:51:38;;;;;;;31.85;21.73;;;;;;;;;;5122430;28;20356;-59
2023/02/24 01:54:08;;;;;;;31.95;22.63;;;10.00;99.90;;;;;;5121888;28;20075;-62
2023/02/24 01:56:34;;;;;;;32.33;22.92;;;9.70;99.90;;;;;;5122904;27;20114;-62
2023/02/24 01:59:01;;;;;;;29.70;22.33;;;9.80;99.90;;;;;;5122824;27;20042;-59
2023/02/24 02:01:39;;;;;;;28.33;21.23;;;9.90;99.90;;;;;;5122394;27;20047;-62
2023/02/24 02:04:22;;;;;;;31.77;22.17;;;10.00;99.90;;;;;;5120161;27;20023;-61
2023/02/24 02:06:48;;;;;;;31.80;22.75;;;10.10;99.90;;;;;;5119697;28;20035;-60
2023/02/24 02:09:15;;;;;;;29.58;22.42;;;10.20;99.90;;;;;;5122758;28;20379;-62
2023/02/24 02:11:42;;;;;;;31.38;21.10;;;10.20;99.90;;;;;;5103654;28;20062;-59
2023/02/24 02:14:08;;;;;;;33.47;22.40;;;10.10;99.90;;;;;;5116532;27;20016;-59
2023/02/24 02:17:03;;;;;;;30.92;22.45;;;10.10;99.90;;;;;;5123013;28;20478;-60
2023/02/24 02:19:47;;;;;;;29.38;22.48;;;10.20;99.90;;;;;;5119197;28;20460;-61
2023/02/24 02:22:16;;;;;;;31.05;21.95;;;10.10;99.90;;;;;;5124837;28;20128;-60
2023/02/24 02:25:08;;;;;;;30.73;22.77;;;10.20;99.90;;;;;;5123823;28;20030;-61
2023/02/24 02:28:30;;;;;;;29.80;22.58;;;10.20;99.90;;;;;;5124289;28;20039;-59
2023/02/24 02:31:15;;;;;;;30.73;23.23;;;;;;;;;;5088055;28;20479;-61
2023/02/24 02:34:00;;;;;;;29.40;22.88;;;;;;;;;;5097934;28;20490;-58
2023/02/24 02:36:57;;;;;;;29.58;23.40;;;10.10;99.90;;;;;;5099585;28;20044;-61
2023/02/24 02:39:51;;;;;;;34.92;23.80;;;10.00;99.90;;;;;;5093782;28;20071;-60
2023/02/24 02:42:38;;;;;;;29.27;22.05;;;9.90;99.90;;;;;;5100040;28;20167;-61
2023/02/24 02:45:21;;;;;;;30.58;22.00;;;9.80;99.90;;;;;;5105384;28;20035;-61
2023/02/24 02:47:53;;;;;;;33.67;26.55;;;9.60;99.90;;;;;;5108062;28;20441;-62
2023/02/24 02:50:35;;;;;;;32.60;23.77;;;9.80;99.90;;;;;;5100721;28;20226;-59
2023/02/24 02:53:13;;;;;;;33.53;24.67;;;9.80;99.90;;;;;;5104811;28;20031;-59
2023/02/24 02:55:45;;;;;;;30.70;22.13;;;9.70;99.90;;;;;;5104476;28;20038;-60
2023/02/24 02:58:18;;;;;;;32.85;25.67;;;9.50;99.90;;;;;;5102956;28;20055;-59
2023/02/24 03:01:01;;;;;;;35.88;26.20;;;9.60;99.90;;;;;;5105223;27;20039;-58
2023/02/24 03:03:41;;;;;;;34.28;25.30;;;9.70;99.90;;;;;;5123371;27;20107;-61
2023/02/24 03:06:27;;;;;;;37.92;25.92;;;9.70;99.90;;;;;;5125973;27;20036;-61
2023/02/24 03:09:15;;;;;;;38.38;26.55;;;9.80;99.90;;;;;;5128860;27;20031;-59
2023/02/24 03:11:48;;;;;;;36.72;25.67;;;9.90;99.90;;;;;;5130041;27;20023;-62
2023/02/24 03:14:16;;;;;;;32.67;24.83;;;9.90;99.90;;;;;;5123815;27;20126;-60
2023/02/24 03:16:47;;;;;;;39.55;27.50;;;9.90;99.90;;;;;;5118661;27;20028;-59
2023/02/24 03:19:19;;;;;;;33.83;25.38;;;9.80;99.90;;;;;;5127749;27;20039;-61
2023/02/24 03:21:51;;;;;;;34.22;26.92;;;9.80;99.90;;;;;;5122426;27;20035;-62
2023/02/24 03:24:17;;;;;;;36.13;28.52;;;9.80;99.90;;;;;;5125925;27;20036;-59
2023/02/24 03:26:48;;;;;;;34.92;26.30;;;9.80;99.90;;;;;;5125330;27;20437;-61
2023/02/24 03:29:17;;;;;;;38.03;28.20;;;9.90;99.90;;;;;;5123777;27;20032;-59
2023/02/24 03:31:49;;;;;;;36.70;28.15;;;9.70;99.90;;;;;;5121903;27;20083;-61
2023/02/24 03:34:28;;;;;;;35.95;28.05;;;9.70;99.90;;;;;;5125270;27;20066;-60
2023/02/24 03:36:55;;;;;;;38.63;27.65;;;9.80;99.90;;;;;;5125299;27;20387;-62
2023/02/24 03:39:22;;;;;;;39.28;28.42;;;9.70;99.90;;;;;;5125263;27;20051;-58
2023/02/24 03:42:08;;;;;;;39.63;28.13;;;9.70;99.90;;;;;;5126383;27;20027;-62
2023/02/24 03:44:34;;;;;;;42.33;28.73;;;9.70;99.90;;;;;;5128548;27;20118;-62
2023/02/24 03:47:01;;;;;;;39.67;27.73;;;9.60;99.90;;;;;;5129559;27;20134;-61
2023/02/24 03:49:27;;;;;;;38.60;28.02;;;9.60;99.90;;;;;;5089357;27;20100;-59
2023/02/24 03:52:07;;;;;;;37.97;27.13;;;9.50;99.90;;;;;;5124841;27;20024;-62
2023/02/24 03:54:36;;;;;;;38.22;27.90;;;9.50;99.90;;;;;;5122272;27;20031;-60
2023/02/24 03:57:25;;;;;;;40.83;28.00;;;9.60;99.90;;;;;;5118336;27;20085;-63
2023/02/24 04:00:21;;;;;;;34.88;27.27;;;9.50;99.90;;;;;;5126486;27;20450;-60
2023/02/24 04:03:12;;;;;;;38.15;27.80;;;9.50;99.90;;;;;;5123038;27;20044;-59
2023/02/24 04:05:50;;;;;;;38.10;28.33;;;9.50;99.90;;;;;;5112050;28;20093;-63
2023/02/24 04:08:19;;;;;;;35.92;28.05;;;9.40;99.90;;;;;;5112510;28;20066;-60
2023/02/24 04:11:04;;;;;;;33.88;26.60;;;9.50;99.90;;;;;;5112122;28;20050;-59
2023/02/24 04:13:46;;;;;;;42.38;29.17;;;9.40;99.90;;;;;;5112169;28;20031;-60
2023/02/24 04:16:27;;;;;;;34.58;28.33;;;9.50;99.90;;;;;;5112252;28;20499;-62
2023/02/24 04:18:57;;;;;;;43.15;29.20;;;9.60;99.90;;;;;;5111921;28;20043;-62
2023/02/24 04:21:27;;;;;;;39.63;30.23;;;9.60;99.90;;;;;;5112417;28;20174;-60
2023/02/24 04:23:54;;;;;;;48.97;36.03;;;9.60;99.90;;;;;;5111944;28;20028;-61
2023/02/24 04:26:23;;;;;;;41.92;30.75;;;9.80;99.90;;;;;;5094614;28;20161;-60
2023/02/24 04:28:50;;;;;;;48.90;36.10;;;9.90;99.90;;;;;;5111880;28;20430;-61
2023/02/24 04:31:19;;;;;;;46.35;31.25;;;10.00;99.90;;;;;;5112544;28;20024;-60
2023/02/24 04:33:54;;;;;;;35.10;28.58;;;10.00;99.90;;;;;;5072303;28;20477;-58
2023/02/24 04:36:21;;;;;;;34.70;27.38;;;10.00;99.90;;;;;;5111714;28;20047;-60
2023/02/24 04:38:47;;;;;;;41.63;29.52;;;9.70;99.90;;;;;;5111614;28;20048;-59
2023/02/24 04:41:19;;;;;;;42.13;31.23;;;9.60;99.90;;;;;;5112170;28;20027;-62
2023/02/24 04:43:51;;;;;;;40.88;30.50;;;9.70;99.90;;;;;;5126906;27;20052;-58
2023/02/24 04:46:18;;;;;;;37.63;29.25;;;9.60;99.90;;;;;;5118311;27;20089;-62
2023/02/24 04:48:44;;;;;;;34.97;27.80;;;9.60;99.90;;;;;;5125981;27;20457;-61
2023/02/24 04:51:11;;;;;;;36.75;28.00;;;9.60;99.90;;;;;;5119728;27;20031;-60
2023/02/24 04:53:37;;;;;;;39.00;31.55;;;9.60;99.90;;;;;;5133023;27;20035;-59
2023/02/24 04:56:07;;;;;;;43.40;30.98;;;9.40;99.90;;;;;;5117731;27;20042;-61
2023/02/24 04:58:35;;;;;;;41.75;31.92;;;9.40;99.90;;;;;;5122717;27;20039;-59
2023/02/24 05:01:08;;;;;;;40.67;29.70;;;9.40;99.90;;;;;;5127793;27;20047;-63
2023/02/24 05:03:34;;;;;;;38.70;31.52;;;9.40;99.90;;;;;;5114560;27;20023;-60
2023/02/24 05:06:00;;;;;;;39.13;29.08;;;9.40;99.90;;;;;;5124827;27;20022;-62
2023/02/24 05:08:28;;;;;;;39.63;31.33;;;9.20;99.90;;;;;;5125399;27;20102;-59
2023/02/24 05:11:02;;;;;;;41.35;29.73;;;9.30;99.90;;;;;;5117401;27;20035;-58
2023/02/24 05:13:30;;;;;;;39.55;30.55;;;9.30;99.90;;;;;;5121738;27;20114;-62
2023/02/24 05:16:06;;;;;;;40.85;30.48;;;9.30;99.90;;;;;;5119414;27;20038;-62
2023/02/24 05:18:35;;;;;;;38.13;28.73;;;9.40;99.90;;;;;;5122783;27;20475;-62
2023/02/24 05:23:53;;;;;;;41.42;29.40;;;8.70;99.90;;;;;;5125330;27;20122;-59
2023/02/24 05:26:24;;;;;;;43.17;32.20;;;8.60;99.90;;;;;;5125441;27;20038;-60
2023/02/24 05:28:53;;;;;;;44.75;31.60;;;;;;;;;;5123194;27;20462;-62
2023/02/24 05:31:20;;;;;;;42.20;31.00;;;;;;;;;;5088008;27;20042;-59
2023/02/24 05:33:53;;;;;;;55.13;39.13;;;;;;;;;;5118370;28;20035;-61
2023/02/24 05:36:20;;;;;;;43.20;27.80;;;8.70;99.90;;;;;;5124976;27;20474;-61
2023/02/24 05:38:47;;;;;;;43.90;33.00;;;8.40;99.90;;;;;;5117416;27;20043;-61
2023/02/24 05:41:17;;;;;;;43.90;31.00;;;8.40;99.90;;;;;;5123702;27;20032;-59
2023/02/24 05:43:52;;;;;;;44.42;31.40;;;8.50;99.90;;;;;;5120451;28;20030;-61
2023/02/24 05:46:19;;;;;;;42.53;31.40;;;8.80;99.90;;;;;;5122766;28;20531;-58
2023/02/24 05:48:49;;;;;;;41.33;30.58;;;8.90;99.90;;;;;;5121943;28;20055;-58
2023/02/24 05:51:15;;;;;;;42.33;31.23;;;9.10;99.90;;;;;;5091792;28;20118;-57
2023/02/24 05:53:41;;;;;;;46.50;31.45;;;9.20;99.90;;;;;;5124906;28;20054;-60
2023/02/24 05:56:10;;;;;;;41.72;29.98;;;9.40;99.90;;;;;;5118500;28;20043;-58
2023/02/24 05:58:43;;;;;;;37.85;29.30;;;9.80;99.90;;;;;;5123383;28;21026;-58
2023/02/24 06:01:15;;;;;;;40.45;30.27;;;9.90;99.90;;;;;;5122306;27;20087;-60
2023/02/24 06:03:45;;;;;;;42.08;32.13;;;10.10;99.90;;;;;;5123802;28;20035;-59
2023/02/24 06:06:15;;;;;;;49.38;34.35;;;10.60;99.90;;;;;;5116207;27;20047;-59
2023/02/24 06:08:48;;;;;;;57.30;38.50;;;11.30;99.90;;;;;;5126198;28;20019;-62
2023/02/24 06:11:17;;;;;;;55.60;39.05;;;11.30;99.90;;;;;;5128853;28;20077;-60
2023/02/24 06:13:47;;;;;;;44.67;33.97;;;11.50;99.90;;;;;;5127775;28;20069;-60
2023/02/24 06:16:15;;;;;;;42.42;32.92;;;11.00;99.90;;;;;;5128550;27;20031;-54
2023/02/24 06:18:43;;;;;;;39.92;30.00;;;10.70;99.90;;;;;;5126805;27;20074;-52
2023/02/24 06:21:12;;;;;;;39.50;30.75;;;10.20;99.90;;;;;;5126218;27;20039;-52
2023/02/24 06:23:41;;;;;;;40.97;29.05;;;9.70;99.90;;;;;;5126759;27;20442;-58
2023/02/24 06:26:18;;;;;;;46.58;34.47;;;9.50;99.90;;;;;;5126821;27;20054;-54
2023/02/24 06:28:45;;;;;;;44.13;34.15;;;9.50;99.90;;;;;;5126723;27;20083;-56
2023/02/24 06:31:12;;;;;;;42.63;30.30;;;9.80;99.90;;;;;;5126228;27;20039;-57
2023/02/24 06:33:39;;;;;;;45.30;35.85;;;9.70;99.90;;;;;;5130768;27;20042;-57
2023/02/24 06:36:05;;;;;;;44.42;34.90;;;9.90;99.90;;;;;;5124075;27;20112;-59
2023/02/24 06:38:33;;;;;;;45.75;33.65;;;10.00;99.90;;;;;;5125703;27;20033;-60
2023/02/24 06:41:02;;;;;;;43.15;32.60;;;9.90;99.90;;;;;;5126704;27;20058;-59
2023/02/24 06:43:29;;;;;;;48.88;37.15;;;9.90;99.90;;;;;;5122724;27;20387;-60
2023/02/24 06:45:55;;;;;;;44.97;35.15;;;9.80;99.90;;;;;;5125702;27;20451;-58
2023/02/24 06:48:21;;;;;;;46.40;36.33;;;10.00;99.90;;;;;;5127227;27;20034;-57
2023/02/24 06:50:51;;;;;;;43.75;31.80;;;10.10;99.90;;;;;;5120623;27;20036;-59
2023/02/24 06:53:17;;;;;;;44.17;33.55;;;9.90;99.90;;;;;;5127712;27;20026;-57
2023/02/24 06:55:47;;;;;;;43.67;32.90;;;10.00;99.90;;;;;;5128141;27;20080;-59
2023/02/24 06:58:18;;;;;;;42.53;32.40;;;10.10;99.90;;;;;;5128008;27;20093;-60
2023/02/24 07:00:55;;;;;;;42.38;32.72;;;10.20;99.90;;;;;;5125620;27;20035;-59
2023/02/24 07:03:38;;;;;;;43.50;33.28;;;10.30;99.90;;;;;;5125906;27;20491;-58
2023/02/24 07:06:22;;;;;;;45.08;35.22;;;10.60;99.90;;;;;;5127699;27;20035;-61
2023/02/24 07:08:50;;;;;;;43.50;34.08;;;10.70;99.90;;;;;;5130568;27;20166;-60
2023/02/24 07:11:17;;;;;;;39.33;32.38;;;10.90;99.90;;;;;;5125839;27;20482;-61
2023/02/24 07:13:47;;;;;;;38.83;31.83;;;11.10;99.90;;;;;;5126402;27;20031;-58
2023/02/24 07:16:16;;;;;;;40.92;30.27;;;11.30;99.90;;;;;;5125448;27;20085;-59
2023/02/24 07:18:47;;;;;;;37.47;31.25;;;11.60;99.90;;;;;;5124788;27;20103;-59
2023/02/24 07:21:15;;;;;;;39.15;31.58;;;11.60;99.90;;;;;;5125673;27;20386;-60
2023/02/24 07:23:43;;;;;;;36.58;30.27;;;11.60;99.90;;;;;;5121801;27;20050;-57
2023/02/24 07:26:12;;;;;;;37.10;29.23;;;11.50;99.90;;;;;;5125802;27;20080;-60
2023/02/24 07:28:39;;;;;;;36.70;29.33;;;11.80;99.90;;;;;;5124427;27;20058;-58
2023/02/24 07:31:07;;;;;;;37.75;30.13;;;12.00;99.90;;;;;;5123081;27;20118;-58
2023/02/24 07:33:38;;;;;;;36.85;28.10;;;11.80;99.90;;;;;;5128480;27;20023;-58
2023/02/24 07:36:07;;;;;;;39.70;29.70;;;11.80;99.90;;;;;;5122276;27;20035;-57
2023/02/24 07:38:36;;;;;;;33.47;27.33;;;12.00;99.90;;;;;;5097284;27;20074;-60
2023/02/24 07:41:05;;;;;;;32.72;27.85;;;12.30;99.90;;;;;;5106889;27;20063;-60
2023/02/24 07:43:34;;;;;;;33.05;27.13;;;12.60;99.90;;;;;;5124556;27;20047;-59
2023/02/24 07:46:15;;;;;;;32.05;26.23;;;12.30;99.90;;;;;;5116042;27;20039;-59
2023/02/24 07:48:41;;;;;;;31.10;26.17;;;12.40;99.90;;;;;;5122262;27;20466;-59
2023/02/24 07:51:08;;;;;;;30.73;25.92;;;12.60;99.90;;;;;;5124405;27;20031;-59
2023/02/24 07:53:35;;;;;;;34.75;25.27;;;12.90;99.90;;;;;;5105474;28;20130;-59
2023/02/24 07:56:12;;;;;;;40.45;28.40;;;13.00;99.90;;;;;;5107953;28;20426;-59
2023/02/24 07:58:43;;;;;;;34.45;26.83;;;;;;;;;;5087691;27;20043;-57
2023/02/24 08:01:26;;;;;;;37.03;27.77;;;12.80;99.90;;;;;;5120304;27;20186;-55
2023/02/24 08:04:06;;;;;;;34.47;28.05;;;12.80;99.90;;;;;;5122584;27;20486;-58
2023/02/24 08:06:37;;;;;;;34.83;26.98;;;12.70;99.90;;;;;;5115079;27;20035;-56
2023/02/24 08:09:19;;;;;;;36.13;26.23;;;13.00;99.90;;;;;;5124209;27;20122;-61
2023/02/24 08:11:48;;;;;;;57.88;31.88;;;13.10;99.90;;;;;;5120448;27;20062;-57
2023/02/24 08:14:13;;;;;;;51.65;33.88;;;12.70;99.90;;;;;;5101823;28;20459;-59
2023/02/24 08:16:43;;;;;;;46.03;31.25;;;12.60;99.90;;;;;;5100076;28;20072;-57
2023/02/24 08:19:13;;;;;;;44.33;33.25;;;13.20;99.90;;;;;;5103840;28;20055;-59
2023/02/24 08:21:46;;;;;;;40.35;30.88;;;13.10;99.90;;;;;;5103370;28;20031;-55
2023/02/24 08:24:29;;;;;;;46.53;35.15;;;12.90;99.90;;;;;;5101992;28;20043;-58
2023/02/24 08:27:05;;;;;;;49.10;34.05;;;12.80;99.90;;;;;;5082120;28;20039;-59
2023/02/24 08:29:39;;;;;;;41.33;30.08;;;13.00;99.90;;;;;;5061439;28;20044;-56
2023/02/24 08:32:08;;;;;;;36.75;28.20;;;;;;;;;;5101221;28;20039;-57
2023/02/24 08:34:36;;;;;;;39.78;30.38;;;13.50;99.90;;;;;;5104073;28;20514;-54
2023/02/24 08:37:02;;;;;;;43.90;30.63;;;;;;;;;;5103488;28;20030;-56
2023/02/24 08:39:31;;;;;;;33.72;26.38;;;;;;;;;;5101296;28;20134;-55
2023/02/24 08:41:57;;;;;;;30.65;25.80;;;;;;;;;;5092875;28;20036;-55
2023/02/24 08:44:25;;;;;;;34.80;29.05;;;;;;;;;;5107202;27;20055;-55
2023/02/24 08:46:52;;;;;;;39.17;29.73;;;;;;;;;;5121296;27;20035;-57
2023/02/24 08:49:18;;;;;;;43.92;32.38;;;;;;;;;;5101815;28;20435;-53
2023/02/24 08:51:46;;;;;;;40.25;30.25;;;;;;;;;;5107550;28;20039;-57
2023/02/24 08:54:16;;;;;;;32.67;26.65;;;;;;;;;;5104484;28;20517;-57
2023/02/24 08:56:47;;;;;;;32.38;26.33;;;15.80;99.90;;;;;;5103024;28;20092;-56
2023/02/24 08:59:36;;;;;;;27.40;22.97;;;;;;;;;;5047850;28;20052;-57
2023/02/24 09:05:10;;;;;;;24.15;21.60;;;18.80;99.90;;;;;;5046438;28;20033;-55
2023/02/24 09:07:40;;;;;;;29.42;21.52;;;;;;;;;;5058267;28;20033;-56
2023/02/24 09:10:16;;;;;;;25.02;21.40;;;19.80;99.90;;;;;;5059149;28;20440;-55
2023/02/24 09:12:42;;;;;;;25.63;20.75;;;;;;;;;;5059865;28;20044;-55
2023/02/24 09:15:10;;;;;;;24.20;19.90;;;22.70;99.90;;;;;;5054288;28;20044;-56
2023/02/24 09:17:39;;;;;;;23.10;18.23;;;22.30;99.90;;;;;;5056289;28;20029;-55
2023/02/24 09:22:59;;;;;;;20.38;17.13;;;;;;;;;;5048706;28;20542;-53
2023/02/24 09:25:39;;;;;;;24.50;17.10;;;;;;;;;;5078238;28;20060;-53
2023/02/24 09:28:09;;;;;;;21.13;16.83;;;;;;;;;;5080317;28;20133;-55
2023/02/24 09:31:03;;;;;;;20.75;16.80;;;;;;;;;;5079035;28;20039;-53
2023/02/24 09:33:37;;;;;;;23.75;16.75;;;25.10;99.90;;;;;;5060249;28;20047;-54
2023/02/24 09:36:26;;;;;;;20.02;17.38;;;25.50;99.50;;;;;;5064644;28;20036;-55
2023/02/24 09:41:52;;;;;;;20.88;17.95;;;24.20;99.90;;;;;;5125299;27;20035;-56
2023/02/24 09:44:32;;;;;;;23.73;15.20;;;23.60;98.70;;;;;;5126339;27;20038;-55
2023/02/24 09:47:38;;;;;;;29.15;17.50;;;24.60;98.00;;;;;;5127856;27;20039;-51
2023/02/24 09:50:16;;;;;;;19.67;13.13;;;24.40;97.30;;;;;;5120072;27;20071;-54
2023/02/24 09:52:42;;;;;;;17.02;13.85;;;23.20;96.80;;;;;;5131848;27;20042;-55
2023/02/24 09:55:26;;;;;;;18.90;14.73;;;22.90;98.00;;;;;;5132309;27;20039;-52
2023/02/24 09:58:24;;;;;;;19.38;14.57;;;23.30;98.20;;;;;;5129672;27;20535;-57
2023/02/24 10:01:19;;;;;;;26.83;14.15;;;23.30;97.80;;;;;;5131141;27;20075;-55
2023/02/24 10:04:11;;;;;;;23.58;12.45;;;23.60;96.60;;;;;;5126968;27;20109;-57
2023/02/24 10:06:47;;;;;;;21.23;12.95;;;23.60;95.60;;;;;;5124673;27;20106;-52
2023/02/24 10:09:32;;;;;;;18.80;13.65;;;23.30;95.80;;;;;;5133442;27;20084;-54
2023/02/24 10:12:15;;;;;;;20.25;13.60;;;23.10;95.80;;;;;;5104562;28;20051;-55
2023/02/24 10:14:52;;;;;;;15.00;10.23;;;23.10;96.60;;;;;;5106343;28;20028;-55
2023/02/24 10:17:23;;;;;;;18.92;11.98;;;23.00;94.60;;;;;;5108261;28;20031;-54
2023/02/24 10:20:27;;;;;;;21.05;11.32;;;23.10;95.30;;;;;;5105396;28;20372;-51
2023/02/24 10:23:00;;;;;;;16.38;10.80;;;23.20;94.60;;;;;;5078607;28;20039;-51
2023/02/24 10:25:53;;;;;;;25.13;13.38;;;23.30;94.40;;;;;;5106080;28;20035;-54
2023/02/24 10:28:37;;;;;;;23.05;15.35;;;23.20;94.50;;;;;;5015425;28;20092;-49
2023/02/24 10:31:28;;;;;;;21.27;15.07;;;22.40;96.60;;;;;;5032047;28;20033;-52
2023/02/24 10:34:10;;;;;;;16.77;12.18;;;21.90;96.60;;;;;;5032540;28;20041;-48
2023/02/24 10:36:36;;;;;;;26.50;14.25;;;22.40;95.40;;;;;;5032336;28;20076;-47
2023/02/24 10:39:14;;;;;;;26.13;13.50;;;22.80;95.50;;;;;;5032007;28;20057;-55
2023/02/24 10:41:45;;;;;;;33.92;11.60;;;23.00;95.50;;;;;;5025237;28;20032;-52
2023/02/24 10:44:19;;;;;;;12.68;9.38;;;23.10;94.10;;;;;;5067687;28;20507;-49
2023/02/24 10:46:45;;;;;;;27.10;13.20;;;23.10;94.20;;;;;;5066514;28;20439;-51
2023/02/24 10:49:15;;;;;;;21.98;13.48;;;23.00;94.70;;;;;;5064368;28;20036;-51
2023/02/24 10:51:46;;;;;;;34.95;12.90;;;22.90;94.70;;;;;;5070518;28;20071;-48
2023/02/24 10:54:43;;;;;;;17.95;9.88;;;23.10;94.70;;;;;;5067661;28;20499;-52
2023/02/24 10:57:17;;;;;;;13.50;8.85;;;23.20;94.40;;;;;;5063661;28;20150;-49
2023/02/24 11:00:18;;;;;;;13.00;7.93;;;23.50;92.50;;;;;;5066947;28;20052;-49
2023/02/24 11:05:42;;;;;;;15.43;8.23;;;23.40;92.90;;;;;;5097418;27;20556;-49
2023/02/24 11:08:35;;;;;;;11.77;7.30;;;23.60;92.70;;;;;;5124846;27;20046;-48
2023/02/24 11:11:06;;;;;;;11.65;8.20;;;;;;;;;;5128157;27;20027;-55
2023/02/24 11:19:05;;;;;;;9.52;6.55;;;24.30;90.70;;;;;;5126934;27;20149;-50
2023/02/24 11:21:32;;;;;;;24.17;8.00;;;24.30;90.70;;;;;;5133822;27;20391;-48
2023/02/24 11:24:01;;;;;;;11.88;5.85;;;24.60;89.30;;;;;;5129747;27;20117;-47
2023/02/24 11:26:39;;;;;;;12.25;6.10;;;25.00;89.20;;;;;;5111239;27;20498;-48
2023/02/24 11:29:16;;;;;;;12.07;5.82;;;24.80;88.60;;;;;;5106243;27;20120;-47
2023/02/24 11:32:07;;;;;;;24.48;9.15;;;25.30;88.80;;;;;;5132600;27;20027;-51
2023/02/24 11:34:54;;;;;;;8.80;6.35;;;25.90;89.10;;;;;;5126047;27;20068;-58
2023/02/24 11:37:36;;;;;;;16.65;7.20;;;25.60;88.10;;;;;;5119930;27;20499;-59
2023/02/24 11:40:25;;;;;;;12.05;7.82;;;24.80;88.20;;;;;;5119036;27;20036;-58
2023/02/24 11:42:56;;;;;;;11.65;6.97;;;25.40;88.60;;;;;;5120429;27;20032;-54
2023/02/24 11:45:37;;;;;;;13.80;6.15;;;25.70;88.70;;;;;;5138293;27;20451;-53
2023/02/24 11:48:19;;;;;;;13.80;6.93;;;24.80;88.20;;;;;;5118394;27;20031;-58
2023/02/24 11:50:48;;;;;;;;;;;25.20;86.50;;;;;;5122496;27;20045;-51
2023/02/24 11:53:17;;;;;;;22.98;6.63;;;25.10;86.30;;;;;;5122594;27;19907;-53
2023/02/24 11:55:47;;;;;;;25.83;9.25;;;24.60;85.30;;;;;;5138869;27;20391;-52
2023/02/24 11:58:34;;;;;;;17.70;8.40;;;24.40;87.00;;;;;;5122578;27;20039;-52
2023/02/24 12:01:19;;;;;;;11.30;5.28;;;23.60;88.00;;;;;;5121773;27;20035;-53
2023/02/24 12:03:49;;;;;;;20.85;9.90;;;23.50;86.10;;;;;;5115910;27;20031;-53
2023/02/24 12:06:26;;;;;;;11.48;4.88;;;23.60;87.80;;;;;;5127485;27;20090;-51
2023/02/24 12:08:59;;;;;;;18.70;9.00;;;23.70;95.20;;;;;;5125434;27;20458;-52
2023/02/24 12:11:32;;;;;;;14.20;7.10;;;23.70;86.40;;;;;;5121996;27;20387;-52
2023/02/24 12:14:27;;;;;;;15.48;7.43;;;23.60;89.20;;;;;;5122098;27;20038;-52
2023/02/24 12:17:08;;;;;;;19.50;8.30;;;23.10;86.30;;;;;;5117789;27;20084;-54
2023/02/24 12:19:53;;;;;;;18.48;7.93;;;23.30;87.00;;;;;;5127820;27;20096;-51
2023/02/24 12:22:22;;;;;;;12.43;4.88;;;22.80;86.10;;;;;;5123161;27;20115;-57
2023/02/24 12:24:51;;;;;;;13.18;6.25;;;23.20;97.80;;;;;;5123280;27;20072;-52
2023/02/24 12:27:28;;;;;;;15.52;4.90;;;23.30;99.10;;;;;;5126412;27;20030;-55
2023/02/24 12:30:39;;;;;;;12.85;4.70;;;23.30;97.30;;;;;;5127856;27;20471;-53
2023/02/24 12:33:27;;;;;;;12.10;5.15;;;23.10;97.20;;;;;;5129953;27;20031;-53
2023/02/24 12:35:53;;;;;;;10.10;4.32;;;;;;;;;;5107460;27;20058;-51
2023/02/24 12:38:44;;;;;;;17.60;6.05;;;;;;;;;;5123200;27;20116;-51
2023/02/24 12:41:32;;;;;;;18.27;7.00;;;;;;;;;;5141137;27;20436;-53
2023/02/24 12:44:10;;;;;;;10.95;5.45;;;22.90;84.70;;;;;;5123601;27;20032;-56
2023/02/24 12:46:38;;;;;;;13.43;5.20;;;23.00;85.20;;;;;;5120298;27;20059;-52
2023/02/24 12:49:22;;;;;;;13.35;4.90;;;23.20;86.90;;;;;;5122485;27;20110;-54
2023/02/24 12:52:02;;;;;;;12.45;5.68;;;23.30;85.10;;;;;;5119548;27;20023;-49
2023/02/24 12:54:40;;;;;;;15.20;5.38;;;22.90;84.90;;;;;;5108347;27;20035;-51
2023/02/24 12:57:16;;;;;;;12.98;5.10;;;22.50;85.00;;;;;;5125410;27;20040;-53
2023/02/24 12:59:41;;;;;;;15.07;4.25;;;22.10;87.40;;;;;;5123288;27;20042;-60
2023/02/24 13:02:31;;;;;;;22.63;6.78;;;21.50;87.00;;;;;;5119397;27;20046;-68
2023/02/24 13:05:23;;;;;;;10.50;4.90;;;21.70;88.30;;;;;;5118823;27;20027;-55
2023/02/24 13:08:01;;;;;;;;;;;21.80;88.50;;;;;;5125501;27;20115;-53
2023/02/24 13:10:36;;;;;;;14.05;5.30;;;21.70;89.20;;;;;;5120924;27;19990;-52
2023/02/24 13:13:14;;;;;;;16.65;4.38;;;21.60;86.60;;;;;;5123219;27;20030;-58
2023/02/24 13:15:50;;;;;;;10.95;5.25;;;21.50;87.80;;;;;;5117139;27;20123;-55
2023/02/24 13:18:44;;;;;;;20.27;7.45;;;21.50;87.40;;;;;;5121493;27;20042;-51
2023/02/24 13:21:23;;;;;;;13.52;4.68;;;21.70;88.40;;;;;;5101218;27;20043;-58
2023/02/24 13:23:55;;;;;;;13.38;4.35;;;21.80;87.20;;;;;;5124400;27;20039;-53
2023/02/24 13:26:24;;;;;;;;;;;21.70;88.80;;;;;;5120407;27;20024;-54
2023/02/24 13:29:11;;;;;;;7.97;3.92;;;21.70;90.30;;;;;;5119039;27;19912;-54
2023/02/24 13:31:46;;;;;;;13.80;5.35;;;21.50;87.70;;;;;;5122317;27;20270;-53
2023/02/24 13:34:30;;;;;;;13.20;4.47;;;21.30;88.30;;;;;;5121410;27;20065;-51
2023/02/24 13:36:56;;;;;;;19.70;6.25;;;21.10;88.60;;;;;;5109702;28;20047;-58
2023/02/24 13:39:30;;;;;;;17.05;5.95;;;20.80;88.00;;;;;;5123109;27;20039;-52